Time;durP1;ratioP1;P1;durP2;ratioP2;P2;SDS_P1;SDS_P2;PMS_P1;PMS_P2;Temp;Humidity;BMP_temperature;BMP_pressure;BME280_temperature;BME280_humidity;BME280_pressure;Samples;Min_cycle;Max_cycle;Signal;HPM_P1;HPM_P2
2022/03/24 00:00:09;;;;;;;49.20;31.30;;;1.60;99.90;;;;;;4784864;29;20142;-77
2022/03/24 00:02:44;;;;;;;48.35;29.77;;;1.60;99.90;;;;;;4784695;30;20056;-77
2022/03/24 00:05:12;;;;;;;47.33;29.25;;;1.50;99.90;;;;;;4786081;29;20154;-77
2022/03/24 00:07:41;;;;;;;52.85;29.83;;;1.50;99.90;;;;;;4783749;29;20051;-77
2022/03/24 00:10:10;;;;;;;46.92;29.08;;;1.50;99.90;;;;;;4784662;29;20153;-76
2022/03/24 00:12:39;;;;;;;43.92;29.15;;;1.50;99.90;;;;;;4784611;30;20489;-77
2022/03/24 00:15:08;;;;;;;48.80;29.10;;;1.50;99.90;;;;;;4784028;30;20456;-76
2022/03/24 00:17:36;;;;;;;45.08;27.27;;;1.50;99.90;;;;;;4783475;30;20059;-78
2022/03/24 00:20:06;;;;;;;44.97;28.23;;;1.40;99.90;;;;;;4784829;29;20529;-77
2022/03/24 00:22:33;;;;;;;60.00;32.30;;;1.40;99.90;;;;;;4784670;30;20120;-77
2022/03/24 00:25:01;;;;;;;49.15;31.13;;;1.40;99.90;;;;;;4784080;29;20433;-76
2022/03/24 00:27:28;;;;;;;49.33;29.02;;;1.40;99.90;;;;;;4768650;30;20149;-76
2022/03/24 00:29:56;;;;;;;53.90;32.03;;;1.40;99.90;;;;;;4769426;29;20082;-76
2022/03/24 00:32:23;;;;;;;49.58;29.92;;;1.30;99.90;;;;;;4784246;30;20063;-76
2022/03/24 00:34:51;;;;;;;48.97;30.13;;;1.40;99.90;;;;;;4772200;29;20051;-76
2022/03/24 00:37:20;;;;;;;49.58;30.98;;;1.40;99.90;;;;;;4782319;29;20094;-75
2022/03/24 00:39:48;;;;;;;50.65;29.80;;;1.30;99.90;;;;;;4770921;30;20052;-72
2022/03/24 00:42:17;;;;;;;50.22;29.67;;;1.30;99.90;;;;;;4769518;30;20146;-72
2022/03/24 00:44:44;;;;;;;52.00;29.52;;;1.30;99.90;;;;;;4772341;30;20447;-73
2022/03/24 00:47:14;;;;;;;47.50;27.98;;;1.30;99.90;;;;;;4787251;30;20406;-72
2022/03/24 00:49:42;;;;;;;45.53;27.85;;;1.30;99.90;;;;;;4787224;30;20093;-72
2022/03/24 00:52:11;;;;;;;44.03;27.77;;;1.30;99.90;;;;;;4788692;29;20052;-73
2022/03/24 00:54:39;;;;;;;48.97;30.23;;;1.30;99.90;;;;;;4785994;29;20062;-73
2022/03/24 00:57:07;;;;;;;46.78;29.35;;;1.30;99.90;;;;;;4788330;29;20094;-73
2022/03/24 00:59:35;;;;;;;49.50;30.05;;;1.30;99.90;;;;;;4788179;29;20537;-74
2022/03/24 01:02:02;;;;;;;48.88;29.52;;;1.30;99.90;;;;;;4787130;30;20059;-74
2022/03/24 01:04:31;;;;;;;47.85;28.20;;;1.30;99.90;;;;;;4786008;29;20066;-73
2022/03/24 01:06:58;;;;;;;44.25;28.92;;;1.30;99.90;;;;;;4786936;30;20078;-74
2022/03/24 01:09:26;;;;;;;49.35;28.63;;;1.30;99.90;;;;;;4786979;29;20055;-73
2022/03/24 01:11:54;;;;;;;46.42;29.38;;;1.30;99.90;;;;;;4771103;30;20138;-72
2022/03/24 01:14:22;;;;;;;47.60;29.58;;;1.30;99.90;;;;;;4786878;30;20509;-74
2022/03/24 01:16:50;;;;;;;53.70;29.60;;;1.30;99.90;;;;;;4787269;29;20432;-73
2022/03/24 01:19:18;;;;;;;44.28;28.02;;;1.20;99.90;;;;;;4801140;29;20055;-73
2022/03/24 01:21:45;;;;;;;46.53;27.00;;;1.20;99.90;;;;;;4785282;30;20502;-73
2022/03/24 01:24:13;;;;;;;53.83;29.77;;;1.20;99.90;;;;;;4787836;29;20508;-73
2022/03/24 01:26:40;;;;;;;49.40;28.65;;;1.20;99.90;;;;;;4787839;29;20063;-72
2022/03/24 01:29:11;;;;;;;49.35;27.05;;;1.20;99.90;;;;;;4788036;29;20471;-73
2022/03/24 01:31:42;;;;;;;46.42;28.15;;;1.20;99.90;;;;;;4786893;29;20061;-72
2022/03/24 01:34:11;;;;;;;49.95;28.45;;;1.20;99.90;;;;;;4787829;29;20410;-73
2022/03/24 01:36:39;;;;;;;47.92;29.67;;;1.20;99.90;;;;;;4786459;29;20056;-72
2022/03/24 01:39:08;;;;;;;55.55;32.33;;;1.20;99.90;;;;;;4785982;30;20089;-73
2022/03/24 01:41:38;;;;;;;52.80;34.03;;;1.20;99.90;;;;;;4787828;29;20070;-73
2022/03/24 01:44:13;;;;;;;51.50;32.17;;;1.20;99.90;;;;;;4771525;30;20464;-71
2022/03/24 01:46:56;;;;;;;54.85;31.80;;;1.20;99.90;;;;;;4787625;29;20410;-71
2022/03/24 01:49:25;;;;;;;48.45;27.17;;;1.20;99.90;;;;;;4784735;29;20138;-72
2022/03/24 01:51:53;;;;;;;48.33;30.50;;;1.20;99.90;;;;;;4786243;30;20581;-72
2022/03/24 01:54:22;;;;;;;45.42;28.33;;;1.30;99.90;;;;;;4786014;30;20055;-73
2022/03/24 01:56:53;;;;;;;49.08;29.83;;;1.20;99.90;;;;;;4785191;29;20441;-72
2022/03/24 01:59:22;;;;;;;50.65;31.88;;;1.20;99.90;;;;;;4787461;29;20429;-72
2022/03/24 02:01:50;;;;;;;54.97;33.42;;;1.20;99.90;;;;;;4786184;29;20051;-72
2022/03/24 02:04:20;;;;;;;54.25;32.53;;;1.20;99.90;;;;;;4785727;29;20149;-73
2022/03/24 02:06:48;;;;;;;59.47;35.25;;;1.20;99.90;;;;;;4784924;29;20116;-73
2022/03/24 02:09:16;;;;;;;52.45;31.67;;;1.20;99.90;;;;;;4787164;29;20058;-73
2022/03/24 02:11:44;;;;;;;52.85;31.77;;;1.20;99.90;;;;;;4785917;29;20088;-71
2022/03/24 02:14:12;;;;;;;55.78;31.73;;;1.20;99.90;;;;;;4785701;30;20517;-73
2022/03/24 02:16:42;;;;;;;57.05;32.97;;;1.20;99.90;;;;;;4784218;30;20134;-73
2022/03/24 02:19:12;;;;;;;55.83;31.15;;;1.10;99.90;;;;;;4785124;29;20104;-72
2022/03/24 02:21:40;;;;;;;53.22;30.90;;;1.10;99.90;;;;;;4786605;30;20063;-72
2022/03/24 02:24:10;;;;;;;50.25;30.75;;;1.10;99.90;;;;;;4785810;29;20043;-74
2022/03/24 02:26:40;;;;;;;56.97;32.05;;;1.10;99.90;;;;;;4787135;29;20069;-72
2022/03/24 02:29:08;;;;;;;51.50;30.70;;;1.10;99.90;;;;;;4786715;29;20063;-73
2022/03/24 02:31:38;;;;;;;52.80;31.95;;;1.10;99.90;;;;;;4785903;30;20058;-72
2022/03/24 02:36:53;;;;;;;52.40;31.05;;;1.10;99.90;;;;;;4785574;30;20142;-71
2022/03/24 02:39:21;;;;;;;54.50;30.83;;;1.10;99.90;;;;;;4786612;29;20458;-73
2022/03/24 02:41:51;;;;;;;54.25;31.05;;;1.10;99.90;;;;;;4786643;29;20420;-73
2022/03/24 02:44:19;;;;;;;50.05;31.08;;;1.10;99.90;;;;;;4784408;30;20051;-74
2022/03/24 02:46:48;;;;;;;46.55;28.58;;;1.00;99.90;;;;;;4786565;29;20100;-74
2022/03/24 02:49:16;;;;;;;48.20;30.17;;;1.10;99.90;;;;;;4770252;30;20051;-73
2022/03/24 02:51:43;;;;;;;49.47;30.42;;;1.10;99.90;;;;;;4784380;29;20078;-74
2022/03/24 02:54:12;;;;;;;49.33;28.65;;;1.10;99.90;;;;;;4783283;30;20100;-74
2022/03/24 02:56:42;;;;;;;46.90;27.75;;;1.10;99.90;;;;;;4784965;29;20097;-73
2022/03/24 02:59:12;;;;;;;54.40;28.83;;;1.10;99.90;;;;;;4784778;29;20569;-74
2022/03/24 03:01:43;;;;;;;44.50;26.73;;;1.10;99.90;;;;;;4779399;30;20062;-73
2022/03/24 03:04:11;;;;;;;48.95;29.10;;;1.10;99.90;;;;;;4785137;30;20107;-73
2022/03/24 03:06:38;;;;;;;50.55;29.73;;;1.10;99.90;;;;;;4783517;30;20055;-73
2022/03/24 03:09:07;;;;;;;49.53;29.73;;;1.10;99.90;;;;;;4769562;30;20083;-75
2022/03/24 03:11:34;;;;;;;54.35;31.52;;;1.10;99.90;;;;;;4799692;29;20099;-73
2022/03/24 03:14:03;;;;;;;57.72;30.50;;;1.10;99.90;;;;;;4785981;29;20059;-73
2022/03/24 03:16:31;;;;;;;52.08;30.75;;;1.10;99.90;;;;;;4783707;29;20051;-73
2022/03/24 03:18:58;;;;;;;54.72;30.98;;;1.00;99.90;;;;;;4783153;29;20540;-73
2022/03/24 03:21:26;;;;;;;51.72;30.88;;;1.10;99.90;;;;;;4784474;30;20055;-73
2022/03/24 03:23:54;;;;;;;43.70;26.42;;;1.10;99.90;;;;;;4786034;29;20063;-73
2022/03/24 03:26:23;;;;;;;44.38;25.48;;;1.00;99.90;;;;;;4786510;29;20054;-73
2022/03/24 03:28:52;;;;;;;44.20;24.73;;;1.00;99.90;;;;;;4784079;30;20063;-73
2022/03/24 03:31:20;;;;;;;41.22;26.80;;;1.00;99.90;;;;;;4785386;29;20572;-72
2022/03/24 03:33:48;;;;;;;43.70;27.63;;;1.10;99.90;;;;;;4799567;29;20055;-71
2022/03/24 03:36:15;;;;;;;44.50;25.75;;;1.00;99.90;;;;;;4784397;30;20057;-73
2022/03/24 03:38:42;;;;;;;41.90;24.58;;;1.00;99.90;;;;;;4785714;30;20532;-72
2022/03/24 03:41:10;;;;;;;41.10;24.52;;;1.10;99.90;;;;;;4784181;30;20059;-72
2022/03/24 03:43:37;;;;;;;39.22;23.92;;;1.10;99.90;;;;;;4799712;29;20057;-72
2022/03/24 03:46:04;;;;;;;44.85;23.95;;;1.10;99.90;;;;;;4798729;29;20501;-72
2022/03/24 03:48:33;;;;;;;40.63;23.35;;;1.10;99.90;;;;;;4799480;29;20440;-72
2022/03/24 03:51:00;;;;;;;39.72;24.40;;;1.20;99.90;;;;;;4786217;29;20094;-73
2022/03/24 03:53:28;;;;;;;42.85;24.58;;;1.20;99.90;;;;;;4799719;29;20047;-72
2022/03/24 03:55:55;;;;;;;45.35;25.35;;;1.20;99.90;;;;;;4784896;29;20134;-72
2022/03/24 03:58:22;;;;;;;39.53;22.63;;;1.20;99.90;;;;;;4784392;30;20067;-70
2022/03/24 04:00:59;;;;;;;41.42;23.65;;;1.30;99.90;;;;;;4784662;30;20055;-71
2022/03/24 04:03:29;;;;;;;40.28;22.50;;;1.20;99.90;;;;;;4783706;29;20063;-72
2022/03/24 04:06:00;;;;;;;40.25;23.63;;;1.20;99.90;;;;;;4767882;30;20063;-71
2022/03/24 04:08:28;;;;;;;49.75;26.52;;;1.20;99.90;;;;;;4766620;30;20062;-71
2022/03/24 04:10:56;;;;;;;53.65;28.83;;;1.20;99.90;;;;;;4772244;29;20191;-71
2022/03/24 04:13:23;;;;;;;58.40;28.70;;;1.10;99.90;;;;;;4786956;29;20082;-72
2022/03/24 04:15:54;;;;;;;53.90;29.55;;;1.10;99.90;;;;;;4784593;30;20059;-72
2022/03/24 04:18:23;;;;;;;50.63;29.35;;;1.20;99.90;;;;;;4770727;30;20051;-72
2022/03/24 04:20:51;;;;;;;48.40;27.50;;;1.20;99.90;;;;;;4787619;29;20059;-72
2022/03/24 04:23:21;;;;;;;46.38;26.15;;;1.20;99.90;;;;;;4785288;29;20161;-72
2022/03/24 04:25:49;;;;;;;49.83;28.48;;;1.20;99.90;;;;;;4783563;29;20055;-72
2022/03/24 04:28:16;;;;;;;47.97;27.45;;;1.20;99.90;;;;;;4802033;29;20043;-73
2022/03/24 04:30:44;;;;;;;52.85;27.75;;;1.20;99.90;;;;;;4773541;30;20055;-72
2022/03/24 04:33:11;;;;;;;53.08;28.40;;;1.20;99.90;;;;;;4785627;29;20545;-72
2022/03/24 04:35:39;;;;;;;45.55;28.02;;;1.30;99.90;;;;;;4787521;30;20086;-71
2022/03/24 04:38:08;;;;;;;47.47;27.08;;;1.30;99.90;;;;;;4784581;29;20131;-71
2022/03/24 04:40:37;;;;;;;47.42;27.27;;;1.40;99.90;;;;;;4786294;30;20051;-71
2022/03/24 04:43:05;;;;;;;47.25;28.08;;;1.40;99.90;;;;;;4787432;29;20509;-71
2022/03/24 04:45:33;;;;;;;44.90;25.65;;;1.50;99.90;;;;;;4787307;30;20055;-71
2022/03/24 04:48:02;;;;;;;53.13;26.65;;;1.50;99.90;;;;;;4787112;29;20063;-71
2022/03/24 04:50:30;;;;;;;46.05;29.17;;;1.50;99.90;;;;;;4786289;30;20428;-71
2022/03/24 04:52:57;;;;;;;49.08;28.42;;;1.60;99.90;;;;;;4801921;29;20087;-70
2022/03/24 04:55:25;;;;;;;43.53;25.73;;;1.60;99.90;;;;;;4788533;29;20090;-71
2022/03/24 04:57:53;;;;;;;45.92;27.15;;;1.60;99.90;;;;;;4780300;29;20528;-72
2022/03/24 05:00:20;;;;;;;42.25;26.25;;;1.70;99.90;;;;;;4788174;29;20067;-71
2022/03/24 05:02:48;;;;;;;49.40;25.88;;;1.80;99.90;;;;;;4805302;29;20061;-71
2022/03/24 05:05:16;;;;;;;45.72;25.45;;;1.80;99.90;;;;;;4789324;29;20513;-72
2022/03/24 05:07:43;;;;;;;49.70;26.50;;;1.90;99.90;;;;;;4784707;29;20104;-71
2022/03/24 05:10:11;;;;;;;46.00;26.08;;;1.90;99.90;;;;;;4785695;30;20055;-71
2022/03/24 05:12:41;;;;;;;46.03;25.40;;;2.00;99.90;;;;;;4788066;29;20055;-70
2022/03/24 05:15:14;;;;;;;45.95;24.15;;;2.00;99.90;;;;;;4785288;29;20146;-74
2022/03/24 05:17:42;;;;;;;44.20;26.17;;;2.10;99.90;;;;;;4763161;29;20059;-76
2022/03/24 05:20:10;;;;;;;37.85;24.92;;;2.20;99.90;;;;;;4786296;30;20062;-76
2022/03/24 05:22:38;;;;;;;41.47;24.83;;;2.30;99.90;;;;;;4786225;29;20062;-76
2022/03/24 05:25:08;;;;;;;43.80;26.10;;;2.40;99.90;;;;;;4785442;30;20469;-75
2022/03/24 05:27:36;;;;;;;42.55;27.02;;;2.40;99.90;;;;;;4789910;29;20054;-70
2022/03/24 05:30:04;;;;;;;38.17;19.83;;;2.50;99.90;;;;;;4792918;29;20202;-72
2022/03/24 05:32:34;;;;;;;34.28;17.00;;;2.60;99.90;;;;;;4784141;30;20163;-73
2022/03/24 05:35:03;;;;;;;31.90;17.52;;;2.70;99.90;;;;;;4783839;29;20744;-76
2022/03/24 05:37:30;;;;;;;30.55;16.95;;;2.80;99.90;;;;;;4769020;30;20126;-72
2022/03/24 05:39:58;;;;;;;27.27;15.55;;;3.00;99.90;;;;;;4769648;30;20056;-77
2022/03/24 05:42:27;;;;;;;25.42;15.48;;;3.10;99.90;;;;;;4784491;30;20051;-79
2022/03/24 05:44:55;;;;;;;29.60;15.30;;;3.20;99.90;;;;;;4786404;29;20071;-79
2022/03/24 05:47:22;;;;;;;29.20;15.38;;;3.30;99.90;;;;;;4764640;29;20497;-73
2022/03/24 05:49:52;;;;;;;21.92;13.98;;;3.40;99.90;;;;;;4785046;29;20047;-73
2022/03/24 05:52:33;;;;;;;27.30;13.35;;;3.40;99.90;;;;;;4783731;30;20047;-74
2022/03/24 05:55:01;;;;;;;24.35;14.38;;;3.50;99.90;;;;;;4790860;29;20497;-75
2022/03/24 05:57:30;;;;;;;19.25;13.95;;;3.50;99.90;;;;;;4787570;29;20078;-75
2022/03/24 05:59:58;;;;;;;30.63;13.93;;;3.50;99.90;;;;;;4801212;29;20063;-79
2022/03/24 06:02:26;;;;;;;24.92;14.75;;;3.60;99.90;;;;;;4794949;29;20528;-74
2022/03/24 06:04:58;;;;;;;27.90;14.98;;;3.70;99.90;;;;;;4785713;29;20052;-74
2022/03/24 06:07:26;;;;;;;30.38;15.43;;;3.80;99.90;;;;;;4787603;29;20062;-77
2022/03/24 06:09:53;;;;;;;18.48;12.93;;;3.90;99.90;;;;;;4785808;29;20429;-73
2022/03/24 06:12:23;;;;;;;22.13;13.30;;;4.10;99.90;;;;;;4785596;30;20055;-74
2022/03/24 06:14:51;;;;;;;22.30;13.57;;;4.40;99.90;;;;;;4785294;29;20521;-74
2022/03/24 06:17:20;;;;;;;23.02;11.75;;;4.70;99.90;;;;;;4785079;29;20512;-75
2022/03/24 06:19:48;;;;;;;20.02;11.60;;;5.10;99.90;;;;;;4791205;29;20080;-74
2022/03/24 06:22:18;;;;;;;22.52;11.98;;;5.40;99.90;;;;;;4794776;29;20588;-73
2022/03/24 06:24:46;;;;;;;19.15;11.23;;;5.40;99.90;;;;;;4785652;29;20063;-73
2022/03/24 06:27:13;;;;;;;27.08;12.45;;;5.40;99.90;;;;;;4785400;30;20051;-73
2022/03/24 06:29:41;;;;;;;22.33;10.73;;;5.40;99.90;;;;;;4787075;29;20149;-71
2022/03/24 06:32:09;;;;;;;22.40;12.10;;;5.40;99.90;;;;;;4785948;30;20121;-71
2022/03/24 06:34:37;;;;;;;19.60;11.73;;;5.50;99.90;;;;;;4783519;29;20063;-72
2022/03/24 06:37:08;;;;;;;32.10;12.85;;;5.70;99.90;;;;;;4769952;30;20160;-72
2022/03/24 06:39:37;;;;;;;20.15;11.38;;;6.20;99.90;;;;;;4783997;29;20124;-72
2022/03/24 06:42:06;;;;;;;18.70;11.32;;;6.40;99.90;;;;;;4781812;29;20055;-71
2022/03/24 06:44:35;;;;;;;27.63;11.38;;;6.60;99.90;;;;;;4782875;29;20136;-69
2022/03/24 06:47:03;;;;;;;23.48;11.85;;;6.70;99.90;;;;;;4785281;30;20055;-70
2022/03/24 06:49:32;;;;;;;23.27;12.05;;;6.90;99.90;;;;;;4784497;29;20535;-69
2022/03/24 06:51:59;;;;;;;20.65;11.07;;;6.90;99.90;;;;;;4766633;30;20078;-70
2022/03/24 06:54:30;;;;;;;27.67;12.20;;;6.80;99.90;;;;;;4783919;29;20066;-71
2022/03/24 06:56:59;;;;;;;16.63;10.68;;;6.80;99.90;;;;;;4784020;29;20153;-70
2022/03/24 06:59:27;;;;;;;23.92;12.60;;;6.70;99.90;;;;;;4785267;29;20440;-71
2022/03/24 07:01:56;;;;;;;28.23;11.73;;;6.70;99.90;;;;;;4764683;29;20067;-72
2022/03/24 07:04:24;;;;;;;31.13;10.82;;;6.70;99.90;;;;;;4782299;29;20051;-70
2022/03/24 07:06:51;;;;;;;22.52;11.13;;;6.70;99.90;;;;;;4783181;29;20062;-70
2022/03/24 07:09:19;;;;;;;24.67;11.30;;;6.70;99.90;;;;;;4782570;29;20167;-71
2022/03/24 07:11:46;;;;;;;29.02;10.52;;;6.80;99.90;;;;;;4784257;29;20055;-70
2022/03/24 07:14:15;;;;;;;21.25;10.95;;;7.00;99.90;;;;;;4781021;29;20086;-72
2022/03/24 07:16:42;;;;;;;24.52;9.75;;;7.00;99.90;;;;;;4793360;29;20051;-71
2022/03/24 07:19:12;;;;;;;18.33;9.15;;;7.10;99.90;;;;;;4785840;29;20051;-70
2022/03/24 07:21:42;;;;;;;22.30;9.18;;;7.10;99.90;;;;;;4785613;29;20138;-70
2022/03/24 07:24:10;;;;;;;16.77;8.32;;;7.30;99.90;;;;;;4785364;29;20085;-80
2022/03/24 07:26:38;;;;;;;20.80;8.85;;;7.40;99.90;;;;;;4784904;29;20108;-71
2022/03/24 07:29:06;;;;;;;19.60;8.93;;;7.50;99.90;;;;;;4787373;29;20115;-71
2022/03/24 07:31:35;;;;;;;19.70;9.10;;;7.50;99.90;;;;;;4801230;29;20122;-70
2022/03/24 07:34:04;;;;;;;18.63;8.38;;;7.40;99.90;;;;;;4785096;29;20058;-71
2022/03/24 07:36:32;;;;;;;16.88;8.45;;;7.70;99.90;;;;;;4788204;29;20536;-77
2022/03/24 07:39:00;;;;;;;18.50;7.43;;;8.40;99.90;;;;;;4787509;29;20066;-79
2022/03/24 07:41:29;;;;;;;19.58;7.45;;;8.80;99.90;;;;;;4786484;29;20047;-77
2022/03/24 07:43:57;;;;;;;31.10;9.00;;;8.80;99.90;;;;;;4785280;29;20056;-71
2022/03/24 07:46:24;;;;;;;15.48;8.20;;;8.70;99.90;;;;;;4787287;29;20066;-71
2022/03/24 07:48:53;;;;;;;20.60;7.63;;;9.80;99.90;;;;;;4802943;29;20463;-72
2022/03/24 07:51:22;;;;;;;23.77;8.63;;;10.90;99.90;;;;;;4786869;29;20043;-76
2022/03/24 07:54:00;;;;;;;20.40;7.30;;;11.80;93.10;;;;;;4788905;29;20062;-76
2022/03/24 07:56:29;;;;;;;24.25;8.77;;;12.40;90.00;;;;;;4785922;30;20124;-78
2022/03/24 07:58:59;;;;;;;15.02;7.97;;;13.20;83.50;;;;;;4783113;30;20583;-71
2022/03/24 08:01:29;;;;;;;22.75;8.38;;;13.40;77.20;;;;;;4788835;29;20154;-81
2022/03/24 08:04:01;;;;;;;17.90;8.13;;;13.30;78.60;;;;;;4789888;29;20505;-77
2022/03/24 08:06:30;;;;;;;19.57;7.60;;;13.50;76.60;;;;;;4789127;29;20081;-77
2022/03/24 08:08:58;;;;;;;19.65;8.30;;;13.70;75.30;;;;;;4787013;29;20505;-79
2022/03/24 08:11:26;;;;;;;15.70;7.15;;;13.80;74.80;;;;;;4786364;30;20086;-74
2022/03/24 08:13:55;;;;;;;17.75;7.38;;;14.20;74.40;;;;;;4785436;29;20124;-77
2022/03/24 08:16:24;;;;;;;14.57;7.40;;;14.60;72.50;;;;;;4783919;30;20063;-78
2022/03/24 08:18:51;;;;;;;19.38;7.65;;;15.10;70.00;;;;;;4788407;29;20104;-78
2022/03/24 08:21:20;;;;;;;13.45;7.40;;;15.50;68.10;;;;;;4785915;30;20074;-78
2022/03/24 08:23:48;;;;;;;18.05;7.80;;;15.90;66.20;;;;;;4788204;29;20201;-78
2022/03/24 08:26:16;;;;;;;13.57;7.43;;;16.40;64.90;;;;;;4787996;30;20067;-78
2022/03/24 08:28:44;;;;;;;17.88;8.02;;;17.00;61.30;;;;;;4786478;29;20145;-70
2022/03/24 08:31:12;;;;;;;23.27;7.65;;;17.00;60.10;;;;;;4786992;29;20154;-78
2022/03/24 08:33:43;;;;;;;16.30;7.68;;;16.90;59.80;;;;;;4801496;29;20059;-76
2022/03/24 08:36:13;;;;;;;17.17;7.18;;;16.70;60.00;;;;;;4772553;29;20368;-69
2022/03/24 08:38:41;;;;;;;14.73;7.50;;;16.60;60.40;;;;;;4788488;29;20054;-72
2022/03/24 08:41:09;;;;;;;22.23;8.48;;;17.00;60.40;;;;;;4772161;29;20146;-70
2022/03/24 08:43:37;;;;;;;13.68;7.20;;;17.50;58.80;;;;;;4789730;29;20062;-72
2022/03/24 08:46:06;;;;;;;15.32;7.82;;;17.80;57.70;;;;;;4784536;29;20142;-72
2022/03/24 08:48:34;;;;;;;14.85;8.32;;;17.70;57.80;;;;;;4784992;29;20058;-71
2022/03/24 08:51:01;;;;;;;20.55;8.20;;;18.00;56.90;;;;;;4781384;29;20052;-71
2022/03/24 08:53:29;;;;;;;11.57;8.70;;;17.80;57.20;;;;;;4787504;29;20061;-73
2022/03/24 08:55:58;;;;;;;17.00;9.10;;;17.90;57.80;;;;;;4781453;29;20051;-72
2022/03/24 08:58:26;;;;;;;17.10;7.60;;;18.00;56.80;;;;;;4786131;29;20059;-72
2022/03/24 09:00:53;;;;;;;10.52;7.25;;;18.40;55.80;;;;;;4785048;30;20082;-72
2022/03/24 09:03:21;;;;;;;12.32;7.80;;;18.40;55.40;;;;;;4788291;29;20051;-77
2022/03/24 09:05:48;;;;;;;16.10;8.68;;;18.10;55.60;;;;;;4785333;30;20059;-78
2022/03/24 09:08:16;;;;;;;19.25;8.57;;;17.80;56.70;;;;;;4769939;30;20086;-78
2022/03/24 09:10:47;;;;;;;17.40;8.75;;;18.10;56.40;;;;;;4785211;30;20442;-80
2022/03/24 09:13:16;;;;;;;16.50;8.07;;;18.10;55.60;;;;;;4787378;29;20055;-79
2022/03/24 09:15:44;;;;;;;17.42;9.13;;;17.90;55.80;;;;;;4774563;29;20087;-71
2022/03/24 09:18:13;;;;;;;15.60;8.63;;;17.80;56.50;;;;;;4781187;29;20067;-72
2022/03/24 09:20:41;;;;;;;12.88;8.25;;;18.10;55.90;;;;;;4804312;29;20075;-71
2022/03/24 09:23:09;;;;;;;15.13;8.10;;;18.30;55.30;;;;;;4792478;29;20067;-80
2022/03/24 09:25:38;;;;;;;17.77;9.05;;;18.60;55.00;;;;;;4785854;30;20083;-77
2022/03/24 09:28:06;;;;;;;13.63;7.47;;;18.60;54.40;;;;;;4782501;29;20090;-78
2022/03/24 09:30:36;;;;;;;14.57;7.18;;;18.80;53.70;;;;;;4777232;30;20153;-81
2022/03/24 09:33:04;;;;;;;17.05;8.30;;;18.70;53.50;;;;;;4785304;29;20524;-72
2022/03/24 09:35:33;;;;;;;18.38;9.52;;;18.50;54.10;;;;;;4786127;30;20085;-73
2022/03/24 09:38:00;;;;;;;18.17;8.27;;;18.60;54.50;;;;;;4780025;29;20063;-71
2022/03/24 09:40:27;;;;;;;11.18;7.72;;;18.60;54.10;;;;;;4785540;30;20051;-73
2022/03/24 09:43:00;;;;;;;17.83;8.18;;;18.90;53.70;;;;;;4785609;29;20055;-72
2022/03/24 09:45:27;;;;;;;15.90;8.70;;;18.90;53.90;;;;;;4785149;29;20055;-72
2022/03/24 09:47:56;;;;;;;22.20;9.25;;;18.80;53.50;;;;;;4786244;29;20071;-72
2022/03/24 09:50:28;;;;;;;17.65;8.98;;;18.40;54.10;;;;;;4787077;29;20059;-71
2022/03/24 09:52:56;;;;;;;16.05;8.30;;;18.00;54.60;;;;;;4782113;29;20146;-71
2022/03/24 09:55:23;;;;;;;20.50;9.68;;;17.50;55.40;;;;;;4797289;29;20529;-71
2022/03/24 09:57:51;;;;;;;14.75;8.45;;;17.00;56.40;;;;;;4784303;29;20120;-72
2022/03/24 10:00:19;;;;;;;19.88;8.88;;;16.60;57.70;;;;;;4784505;29;20055;-74
2022/03/24 10:03:08;;;;;;;13.07;8.82;;;16.50;57.70;;;;;;4790981;29;20063;-70
2022/03/24 10:05:36;;;;;;;19.40;8.68;;;16.40;58.40;;;;;;4786060;30;20051;-73
2022/03/24 10:08:06;;;;;;;13.90;8.50;;;16.40;58.60;;;;;;4784922;29;20071;-74
2022/03/24 10:10:36;;;;;;;20.63;8.70;;;16.60;58.40;;;;;;4784773;29;20063;-72
2022/03/24 10:13:05;;;;;;;13.93;8.27;;;17.00;58.00;;;;;;4782452;29;20573;-72
2022/03/24 10:15:34;;;;;;;14.57;8.20;;;17.40;56.80;;;;;;4761703;30;20467;-73
2022/03/24 10:18:03;;;;;;;17.38;8.05;;;17.70;56.30;;;;;;4786466;29;20119;-72
2022/03/24 10:20:33;;;;;;;14.80;7.95;;;17.90;55.60;;;;;;4788871;29;20130;-72
2022/03/24 10:23:04;;;;;;;17.58;8.57;;;18.40;55.40;;;;;;4782897;29;20129;-80
2022/03/24 10:25:35;;;;;;;17.10;8.48;;;19.20;54.00;;;;;;4786230;30;20082;-72
2022/03/24 10:28:06;;;;;;;11.68;8.57;;;19.50;53.10;;;;;;4785426;29;20055;-71
2022/03/24 10:30:47;;;;;;;15.57;7.68;;;19.60;53.20;;;;;;4786749;30;20059;-78
2022/03/24 10:33:33;;;;;;;14.50;8.30;;;19.50;52.40;;;;;;4786224;29;20058;-72
2022/03/24 10:36:13;;;;;;;19.15;8.57;;;19.50;53.60;;;;;;4780183;30;20098;-81
2022/03/24 10:38:44;;;;;;;27.50;9.15;;;19.30;52.70;;;;;;4792615;29;20552;-77
2022/03/24 10:41:18;;;;;;;15.90;8.65;;;18.80;53.30;;;;;;4800670;29;20497;-72
2022/03/24 10:43:46;;;;;;;15.07;9.18;;;18.40;54.00;;;;;;4782537;29;20077;-72
2022/03/24 10:46:19;;;;;;;15.98;7.95;;;17.90;54.60;;;;;;4767898;29;20587;-78
2022/03/24 10:48:50;;;;;;;17.52;8.30;;;17.70;55.60;;;;;;4793685;29;20473;-72
2022/03/24 10:51:25;;;;;;;20.75;9.27;;;17.70;55.90;;;;;;4789257;29;20116;-71
2022/03/24 10:53:56;;;;;;;13.55;7.55;;;17.70;55.90;;;;;;4784305;29;20201;-71
2022/03/24 10:56:35;;;;;;;19.98;9.63;;;17.80;56.10;;;;;;4784813;29;20099;-72
2022/03/24 10:59:06;;;;;;;16.52;8.80;;;18.00;55.90;;;;;;4783407;29;20055;-72
2022/03/24 11:01:34;;;;;;;21.70;8.57;;;18.10;55.30;;;;;;4766139;30;20058;-71
2022/03/24 11:04:03;;;;;;;16.95;9.10;;;18.00;55.30;;;;;;4787673;29;20925;-78
2022/03/24 11:06:31;;;;;;;18.00;8.63;;;18.20;55.10;;;;;;4783858;29;20056;-78
2022/03/24 11:09:00;;;;;;;17.98;9.07;;;18.50;55.60;;;;;;4792410;29;20062;-78
2022/03/24 11:11:28;;;;;;;16.38;7.93;;;18.70;54.90;;;;;;4783380;29;20055;-77
2022/03/24 11:13:58;;;;;;;18.98;9.57;;;18.90;54.30;;;;;;4799292;29;20437;-78
2022/03/24 11:16:29;;;;;;;15.60;8.90;;;18.40;54.20;;;;;;4784889;30;20047;-71
2022/03/24 11:19:01;;;;;;;21.38;8.52;;;18.00;56.30;;;;;;4787241;29;20050;-81
2022/03/24 11:21:35;;;;;;;16.87;9.17;;;17.80;56.40;;;;;;4779576;29;20439;-76
2022/03/24 11:24:03;;;;;;;23.27;8.75;;;18.20;56.30;;;;;;4797683;29;20058;-71
2022/03/24 11:26:31;;;;;;;18.88;8.57;;;18.60;55.20;;;;;;4782656;29;20058;-71
2022/03/24 11:29:00;;;;;;;19.90;8.63;;;19.20;54.70;;;;;;4794155;29;20603;-80
2022/03/24 11:31:31;;;;;;;24.88;7.93;;;19.90;53.30;;;;;;4783318;30;20058;-80
2022/03/24 11:34:04;;;;;;;14.82;8.35;;;20.30;52.40;;;;;;4782250;29;20074;-77
2022/03/24 11:36:33;;;;;;;18.88;8.55;;;20.60;51.50;;;;;;4784079;30;20059;-78
2022/03/24 11:39:04;;;;;;;23.83;8.50;;;20.50;51.20;;;;;;4796825;29;20590;-77
2022/03/24 11:41:41;;;;;;;20.85;8.45;;;20.70;51.30;;;;;;4759458;30;20052;-79
2022/03/24 11:44:16;;;;;;;15.55;8.45;;;20.80;50.70;;;;;;4797848;29;20517;-72
2022/03/24 11:46:51;;;;;;;18.77;8.57;;;20.80;50.60;;;;;;4784158;29;20609;-72
2022/03/24 11:49:23;;;;;;;15.30;8.63;;;20.80;50.10;;;;;;4785106;29;20059;-71
2022/03/24 11:52:23;;;;;;;16.88;9.23;;;20.60;50.70;;;;;;4782971;30;20146;-71
2022/03/24 11:54:54;;;;;;;15.00;8.05;;;20.40;50.60;;;;;;4779421;30;20089;-78
2022/03/24 11:57:34;;;;;;;12.40;7.63;;;20.30;50.40;;;;;;4783035;30;20063;-80
2022/03/24 12:00:50;;;;;;;22.58;8.73;;;20.00;51.20;;;;;;4783399;29;20066;-77
2022/03/24 12:03:44;;;;;;;17.50;8.70;;;19.80;51.70;;;;;;4761901;29;20120;-71
2022/03/24 12:06:15;;;;;;;15.10;8.10;;;19.70;51.90;;;;;;4778850;30;20059;-71
2022/03/24 12:08:52;;;;;;;23.83;9.70;;;20.00;51.00;;;;;;4782704;29;20055;-72
2022/03/24 12:11:44;;;;;;;15.40;8.10;;;19.90;51.30;;;;;;4784084;30;20051;-78
2022/03/24 12:14:17;;;;;;;15.88;8.93;;;20.20;51.10;;;;;;4778288;29;20095;-73
2022/03/24 12:16:47;;;;;;;19.38;9.02;;;20.00;51.00;;;;;;4791989;29;20112;-78
2022/03/24 12:19:46;;;;;;;18.88;8.82;;;19.30;51.10;;;;;;4774691;30;20093;-78
2022/03/24 12:22:46;;;;;;;32.17;9.90;;;18.00;53.50;;;;;;4783822;29;20140;-79
2022/03/24 12:25:32;;;;;;;15.70;8.52;;;17.20;55.00;;;;;;4767141;30;20054;-80
2022/03/24 12:28:24;;;;;;;13.82;8.85;;;15.70;57.10;;;;;;4785774;29;20120;-77
2022/03/24 12:31:13;;;;;;;17.45;9.07;;;14.20;60.00;;;;;;4783513;30;20059;-78
2022/03/24 12:33:49;;;;;;;18.17;9.05;;;12.90;64.40;;;;;;4789444;29;20060;-71
2022/03/24 12:36:41;;;;;;;21.67;9.18;;;12.00;67.00;;;;;;4783408;30;20067;-71
2022/03/24 12:39:09;;;;;;;23.77;10.50;;;11.30;69.90;;;;;;4784892;29;20062;-70
2022/03/24 12:41:38;;;;;;;16.45;8.98;;;10.90;73.20;;;;;;4771652;30;20118;-72
2022/03/24 12:44:10;;;;;;;14.52;8.43;;;10.60;76.90;;;;;;4788285;29;20145;-78
2022/03/24 12:46:44;;;;;;;20.75;9.27;;;10.50;82.20;;;;;;4781500;29;20067;-71
2022/03/24 12:49:33;;;;;;;27.52;9.98;;;10.30;88.80;;;;;;4782477;30;20121;-72
2022/03/24 12:52:05;;;;;;;25.38;10.73;;;10.10;93.10;;;;;;4788364;29;20578;-72
2022/03/24 12:54:48;;;;;;;21.30;9.98;;;9.90;95.50;;;;;;4787957;29;20074;-71